createdAt,value
2022-11-23T00:01:25.017Z,97001.31
2022-11-23T00:03:55.178Z,97006.19
2022-11-23T00:06:24.318Z,97009.63
2022-11-23T00:08:51.931Z,97005.78
2022-11-23T00:11:21.748Z,97007.78
2022-11-23T00:13:49.397Z,97007.78
2022-11-23T00:16:21.214Z,97007.72
2022-11-23T00:18:48.931Z,97010.78
2022-11-23T00:21:18.306Z,97014.75
2022-11-23T00:23:46.055Z,97009.38
2022-11-23T00:26:14.321Z,97012.88
2022-11-23T00:28:42.176Z,97010.94
2022-11-23T00:31:11.848Z,97017.25
2022-11-23T00:33:39.403Z,97020.53
2022-11-23T00:36:14.605Z,97022.75
2022-11-23T00:38:43.541Z,97019.56
2022-11-23T00:41:15.239Z,97024.94
2022-11-23T00:43:43.527Z,97024.31
2022-11-23T00:46:21.605Z,97016.34
2022-11-23T00:48:51.647Z,97018.19
2022-11-23T00:51:39.474Z,97020.69
2022-11-23T00:54:09.263Z,97023.63
2022-11-23T00:56:36.581Z,97029.25
2022-11-23T00:59:04.419Z,97036.63
2022-11-23T01:01:36.959Z,97030.38
2022-11-23T01:04:06.752Z,97028.91
2022-11-23T01:06:38.619Z,97020.09
2022-11-23T01:09:17.833Z,97032.72
2022-11-23T01:11:45.768Z,97035.28
2022-11-23T01:14:13.329Z,97033.63
2022-11-23T01:16:42.069Z,97040.63
2022-11-23T01:19:16.615Z,97037.00
2022-11-23T01:21:44.444Z,97031.25
2022-11-23T01:24:21.239Z,97025.38
2022-11-23T01:26:53.036Z,97030.25
2022-11-23T01:29:21.037Z,97026.63
2022-11-23T01:31:48.160Z,97029.25
2022-11-23T01:34:16.434Z,97027.56
2022-11-23T01:36:45.028Z,97032.66
2022-11-23T01:39:13.212Z,97039.25
2022-11-23T01:41:43.800Z,97040.41
2022-11-23T01:44:33.141Z,97040.94
2022-11-23T01:47:06.402Z,97039.16
2022-11-23T01:49:44.769Z,97044.06
2022-11-23T01:52:17.241Z,97045.09
2022-11-23T01:54:49.145Z,97043.84
2022-11-23T01:57:26.148Z,97037.06
2022-11-23T01:59:54.789Z,97042.75
2022-11-23T02:02:22.393Z,97046.16
2022-11-23T02:04:54.504Z,97045.34
2022-11-23T02:07:24.006Z,97046.09
2022-11-23T02:09:52.807Z,97045.91
2022-11-23T02:12:20.158Z,97051.81
2022-11-23T02:14:47.825Z,97051.91
2022-11-23T02:17:15.529Z,97050.34
2022-11-23T02:20:08.839Z,97054.00
2022-11-23T02:22:54.623Z,97048.16
2022-11-23T02:25:38.416Z,97059.56
2022-11-23T02:28:06.334Z,97057.13
2022-11-23T02:30:34.619Z,97050.91
2022-11-23T02:33:05.440Z,97050.25
2022-11-23T02:35:33.750Z,97048.63
2022-11-23T02:38:03.961Z,97057.78
2022-11-23T02:40:36.073Z,97050.94
2022-11-23T02:43:03.869Z,97056.69
2022-11-23T02:45:35.231Z,97049.22
2022-11-23T02:48:03.335Z,97049.50
2022-11-23T02:50:31.434Z,97049.66
2022-11-23T02:53:00.800Z,97042.88
2022-11-23T02:55:28.189Z,97051.06
2022-11-23T02:57:55.549Z,97043.69
2022-11-23T03:00:22.879Z,97051.53
2022-11-23T03:02:50.285Z,97055.38
2022-11-23T03:05:17.708Z,97056.94
2022-11-23T03:07:45.191Z,97061.56
2022-11-23T03:10:14.022Z,97063.38
2022-11-23T03:12:41.462Z,97061.97
2022-11-23T03:15:09.895Z,97055.81
2022-11-23T03:17:41.226Z,97060.41
2022-11-23T03:20:12.629Z,97052.09
2022-11-23T03:22:43.574Z,97052.13
2022-11-23T03:25:12.789Z,97065.44
2022-11-23T03:27:40.563Z,97064.00
2022-11-23T03:30:09.571Z,97061.28
2022-11-23T03:32:37.704Z,97060.06
2022-11-23T03:35:06.055Z,97058.03
2022-11-23T03:37:35.258Z,97053.66
2022-11-23T03:40:02.907Z,97054.50
2022-11-23T03:42:48.839Z,97052.72
2022-11-23T03:45:16.745Z,97052.13
2022-11-23T03:47:45.041Z,97056.78
2022-11-23T03:50:13.547Z,97060.81
2022-11-23T03:52:40.924Z,97060.41
2022-11-23T03:55:08.591Z,97063.19
2022-11-23T03:57:36.123Z,97055.28
2022-11-23T04:00:06.126Z,97052.06
2022-11-23T04:02:40.966Z,97047.28
2022-11-23T04:05:25.371Z,97048.34
2022-11-23T04:08:15.585Z,97050.00
2022-11-23T04:10:42.975Z,97036.00
2022-11-23T04:13:16.190Z,97041.03
2022-11-23T04:15:43.785Z,97036.63
2022-11-23T04:18:11.614Z,97043.50
2022-11-23T04:20:40.170Z,97035.91
2022-11-23T04:23:12.867Z,97028.16
2022-11-23T04:25:41.274Z,97030.91
2022-11-23T04:28:08.960Z,97039.13
2022-11-23T04:30:36.287Z,97033.59
2022-11-23T04:33:03.655Z,97035.63
2022-11-23T04:35:31.637Z,97044.25
2022-11-23T04:37:59.908Z,97042.59
2022-11-23T04:40:31.634Z,97039.19
2022-11-23T04:43:03.475Z,97035.69
2022-11-23T04:45:37.313Z,97042.44
2022-11-23T04:48:07.725Z,97033.69
2022-11-23T04:50:40.421Z,97043.91
2022-11-23T04:53:09.604Z,97040.97
2022-11-23T04:55:42.476Z,97038.59
2022-11-23T04:58:11.324Z,97029.03
2022-11-23T05:00:39.827Z,97028.72
2022-11-23T05:03:07.657Z,97025.03
2022-11-23T05:05:40.614Z,97032.75
2022-11-23T05:08:09.578Z,97024.56
2022-11-23T05:11:06.996Z,97029.88
2022-11-23T05:13:34.468Z,97027.75
2022-11-23T05:16:02.990Z,97025.97
2022-11-23T05:18:30.602Z,97025.38
2022-11-23T05:20:58.538Z,97025.38
2022-11-23T05:23:27.045Z,97029.75
2022-11-23T05:25:55.299Z,97030.00
2022-11-23T05:28:39.533Z,97029.09
2022-11-23T05:31:08.962Z,97030.28
2022-11-23T05:33:37.389Z,97036.44
2022-11-23T05:36:06.230Z,97035.13
2022-11-23T05:38:39.290Z,97025.72
2022-11-23T05:41:12.810Z,97017.28
2022-11-23T05:43:43.109Z,97022.53
2022-11-23T05:46:14.314Z,97027.88
2022-11-23T05:48:41.995Z,97025.25
2022-11-23T05:51:10.954Z,97020.09
2022-11-23T05:53:43.883Z,97024.63
2022-11-23T05:56:24.062Z,97017.72
2022-11-23T05:59:17.528Z,97021.78
2022-11-23T06:01:49.816Z,97018.81
2022-11-23T06:04:24.526Z,97019.69
2022-11-23T06:06:54.468Z,97016.97
2022-11-23T06:09:21.841Z,97024.13
2022-11-23T06:11:51.590Z,97014.78
2022-11-23T06:14:20.808Z,97017.38
2022-11-23T06:16:48.650Z,97017.16
2022-11-23T06:19:32.575Z,97022.63
2022-11-23T06:22:00.042Z,97024.06
2022-11-23T06:24:31.284Z,97016.78
2022-11-23T06:27:24.557Z,97014.78
2022-11-23T06:29:52.538Z,97013.69
2022-11-23T06:32:21.815Z,97019.84
2022-11-23T06:34:49.237Z,97023.09
2022-11-23T06:37:16.720Z,97023.22
2022-11-23T06:39:49.391Z,97019.75
2022-11-23T06:42:37.916Z,97022.28
2022-11-23T06:45:05.030Z,97021.34
2022-11-23T06:47:32.620Z,97032.31
2022-11-23T06:49:59.918Z,97029.47
2022-11-23T06:52:29.149Z,97031.91
2022-11-23T06:54:56.588Z,97029.66
2022-11-23T06:57:25.589Z,97030.84
2022-11-23T06:59:54.401Z,97036.22
2022-11-23T07:02:27.289Z,97038.22
2022-11-23T07:04:57.500Z,97044.91
2022-11-23T07:07:25.971Z,97050.94
2022-11-23T07:10:06.870Z,97047.91
2022-11-23T07:12:44.284Z,97061.38
2022-11-23T07:15:12.261Z,97058.53
2022-11-23T07:17:41.446Z,97058.53
2022-11-23T07:20:11.542Z,97060.03
2022-11-23T07:22:39.425Z,97060.34
2022-11-23T07:25:07.057Z,97063.75
2022-11-23T07:27:34.443Z,97071.09
2022-11-23T07:30:03.286Z,97058.78
2022-11-23T07:32:31.161Z,97057.19
2022-11-23T07:34:58.483Z,97060.06
2022-11-23T07:37:26.882Z,97061.34
2022-11-23T07:39:57.872Z,97060.16
2022-11-23T07:42:39.897Z,97058.81
2022-11-23T07:45:12.121Z,97062.41
2022-11-23T07:47:44.059Z,97045.25
2022-11-23T07:50:12.925Z,97048.59
2022-11-23T07:52:41.327Z,97057.94
2022-11-23T07:55:09.104Z,97060.50
2022-11-23T07:57:36.495Z,97064.19
2022-11-23T08:00:05.049Z,97070.66
2022-11-23T08:02:52.830Z,97080.44
2022-11-23T08:05:27.468Z,97081.81
2022-11-23T08:08:01.705Z,97081.97
2022-11-23T08:10:30.129Z,97079.13
2022-11-23T08:13:01.376Z,97089.44
2022-11-23T08:15:28.922Z,97078.88
2022-11-23T08:18:04.339Z,97087.78
2022-11-23T08:20:33.325Z,97086.28
2022-11-23T08:23:00.751Z,97092.53
2022-11-23T08:25:29.299Z,97096.56
2022-11-23T08:27:58.598Z,97099.09
2022-11-23T08:30:26.796Z,97097.31
2022-11-23T08:32:54.204Z,97102.41
2022-11-23T08:35:21.705Z,97088.81
2022-11-23T08:37:49.091Z,97101.09
2022-11-23T08:40:20.740Z,97104.44
2022-11-23T08:42:52.294Z,97104.06
2022-11-23T08:45:19.548Z,97102.44
2022-11-23T08:47:46.955Z,97099.47
2022-11-23T08:50:14.764Z,97100.75
2022-11-23T08:52:42.074Z,97103.44
2022-11-23T08:55:09.791Z,97097.09
2022-11-23T08:57:37.140Z,97092.50
2022-11-23T09:00:08.034Z,97087.34
2022-11-23T09:02:35.377Z,97092.59
2022-11-23T09:05:02.743Z,97093.72
2022-11-23T09:07:30.067Z,97106.09
2022-11-23T09:09:57.499Z,97101.63
2022-11-23T09:12:24.799Z,97104.00
2022-11-23T09:14:53.536Z,97100.22
2022-11-23T09:17:20.860Z,97094.28
2022-11-23T09:19:50.497Z,97107.47
2022-11-23T09:22:18.008Z,97100.31
2022-11-23T09:24:45.366Z,97096.16
2022-11-23T09:27:13.071Z,97104.63
2022-11-23T09:29:40.731Z,97102.13
2022-11-23T09:32:08.145Z,97103.56
2022-11-23T09:34:35.575Z,97101.09
2022-11-23T09:37:02.995Z,97104.81
2022-11-23T09:39:30.356Z,97106.94
2022-11-23T09:42:13.797Z,97099.88
2022-11-23T09:44:59.229Z,97109.59
2022-11-23T09:47:42.000Z,97097.88
2022-11-23T09:50:18.119Z,97102.16
2022-11-23T09:52:47.780Z,97090.75
2022-11-23T09:55:33.200Z,97099.00
2022-11-23T09:58:05.707Z,97089.25
2022-11-23T10:00:44.780Z,97087.66
2022-11-23T10:03:17.103Z,97092.31
2022-11-23T10:06:22.729Z,97099.41
2022-11-23T10:09:14.760Z,97104.44
2022-11-23T10:11:49.054Z,97094.72
2022-11-23T10:14:35.215Z,97089.69
2022-11-23T10:17:39.522Z,97087.81
2022-11-23T10:20:40.639Z,97085.91
2022-11-23T10:23:30.661Z,97081.84
2022-11-23T10:25:58.092Z,97083.50
2022-11-23T10:28:25.532Z,97084.38
2022-11-23T10:31:14.858Z,97074.59
2022-11-23T10:34:09.484Z,97077.31
2022-11-23T10:36:37.569Z,97065.75
2022-11-23T10:39:23.456Z,97066.00
2022-11-23T10:41:54.556Z,97072.28
2022-11-23T10:44:37.823Z,97071.28
2022-11-23T10:47:05.734Z,97066.16
2022-11-23T10:49:34.511Z,97062.25
2022-11-23T10:52:29.523Z,97069.34
2022-11-23T10:54:58.836Z,97062.03
2022-11-23T10:57:33.182Z,97057.38
2022-11-23T11:00:22.776Z,97055.28
2022-11-23T11:02:56.451Z,97056.00
2022-11-23T11:08:22.514Z,97047.19
2022-11-23T11:10:56.680Z,97041.97
2022-11-23T11:13:27.182Z,97052.56
2022-11-23T11:16:04.794Z,97050.72
2022-11-23T11:18:35.255Z,97049.88
2022-11-23T11:21:10.016Z,97040.50
2022-11-23T11:23:41.027Z,97039.09
2022-11-23T11:26:17.163Z,97037.94
2022-11-23T11:28:48.923Z,97033.84
2022-11-23T11:31:26.088Z,97031.78
2022-11-23T11:34:02.407Z,97031.66
2022-11-23T11:36:36.113Z,97037.13
2022-11-23T11:39:18.374Z,97041.78
2022-11-23T11:41:47.783Z,97034.28
2022-11-23T11:44:20.577Z,97037.19
2022-11-23T11:46:54.768Z,97032.13
2022-11-23T11:49:40.230Z,97024.06
2022-11-23T11:52:23.661Z,97029.41
2022-11-23T11:55:02.979Z,97025.19
2022-11-23T11:57:46.106Z,97018.59
2022-11-23T12:00:19.364Z,97015.34
2022-11-23T12:03:11.279Z,97018.63
2022-11-23T12:05:52.464Z,97014.63
2022-11-23T12:08:50.620Z,97004.84
2022-11-23T12:11:19.489Z,96999.09
2022-11-23T12:13:47.143Z,96998.09
2022-11-23T12:16:19.940Z,96990.78
2022-11-23T12:18:58.734Z,96991.28
2022-11-23T12:21:55.900Z,96988.50
2022-11-23T12:24:26.988Z,96985.56
2022-11-23T12:27:21.166Z,96982.50
2022-11-23T12:30:14.129Z,96988.16
2022-11-23T12:33:05.708Z,96984.19
2022-11-23T12:35:57.175Z,96976.38
2022-11-23T12:38:48.136Z,96985.97
2022-11-23T12:41:34.962Z,96978.03
2022-11-23T12:44:40.303Z,96977.03
2022-11-23T12:47:16.886Z,96976.72
2022-11-23T12:49:59.020Z,96980.03
2022-11-23T12:52:52.046Z,96977.00
2022-11-23T12:55:30.181Z,96965.56
2022-11-23T12:58:17.259Z,96970.13
2022-11-23T13:01:00.243Z,96974.25
2022-11-23T13:03:39.517Z,96979.41
2022-11-23T13:06:15.816Z,96967.47
2022-11-23T13:09:10.244Z,96966.28
2022-11-23T13:11:46.689Z,96972.00
2022-11-23T13:14:14.028Z,96967.25
2022-11-23T13:16:54.477Z,96962.25
2022-11-23T13:19:31.019Z,96961.31
2022-11-23T13:21:59.049Z,96960.13
2022-11-23T13:24:32.814Z,96953.81
2022-11-23T13:27:15.723Z,96960.81
2022-11-23T13:29:51.970Z,96956.66
2022-11-23T13:32:46.211Z,96952.88
2022-11-23T13:35:19.621Z,96949.22
2022-11-23T13:38:15.823Z,96954.53
2022-11-23T13:40:44.872Z,96951.38
2022-11-23T13:43:13.418Z,96948.28
2022-11-23T13:45:40.843Z,96941.63
2022-11-23T13:48:19.431Z,96942.19
2022-11-23T13:51:00.343Z,96938.81
2022-11-23T13:53:36.653Z,96948.88
2022-11-23T13:56:30.612Z,96936.09
2022-11-23T13:59:20.755Z,96931.53
2022-11-23T14:02:07.105Z,96935.94
2022-11-23T14:04:39.563Z,96930.00
2022-11-23T14:07:32.099Z,96925.97
2022-11-23T14:10:09.889Z,96919.44
2022-11-23T14:12:49.318Z,96923.22
2022-11-23T14:15:20.176Z,96911.03
2022-11-23T14:18:16.016Z,96908.53
2022-11-23T14:20:55.254Z,96913.56
2022-11-23T14:23:43.459Z,96898.84
2022-11-23T14:26:30.224Z,96897.84
2022-11-23T14:29:26.366Z,96897.03
2022-11-23T14:32:02.590Z,96896.66
2022-11-23T14:34:35.826Z,96879.47
2022-11-23T14:37:22.170Z,96885.88
2022-11-23T14:40:12.835Z,96885.97
2022-11-23T14:42:45.653Z,96885.63
2022-11-23T14:45:14.790Z,96885.25
2022-11-23T14:47:42.179Z,96887.38
2022-11-23T14:50:31.509Z,96889.13
2022-11-23T14:52:59.844Z,96891.97
2022-11-23T14:55:32.782Z,96887.28
2022-11-23T14:58:04.229Z,96886.13
2022-11-23T15:00:40.345Z,96889.00
2022-11-23T15:03:48.323Z,96883.78
2022-11-23T15:06:13.210Z,96881.59
2022-11-23T15:08:53.990Z,96882.41
2022-11-23T15:11:24.600Z,96881.09
2022-11-23T15:13:53.412Z,96879.97
2022-11-23T15:16:22.230Z,96877.00
2022-11-23T15:18:49.726Z,96879.22
2022-11-23T15:21:27.277Z,96881.56
2022-11-23T15:23:57.411Z,96884.09
2022-11-23T15:26:47.587Z,96882.28
2022-11-23T15:29:36.599Z,96876.81
2022-11-23T15:32:35.602Z,96875.97
2022-11-23T15:35:10.798Z,96881.28
2022-11-23T15:37:45.881Z,96876.00
2022-11-23T15:40:18.414Z,96883.53
2022-11-23T15:42:47.631Z,96884.09
2022-11-23T15:45:57.296Z,96893.06
2022-11-23T15:48:33.207Z,96889.22
2022-11-23T15:51:02.758Z,96886.84
2022-11-23T15:53:47.771Z,96873.47
2022-11-23T15:56:36.250Z,96877.63
2022-11-23T15:59:23.861Z,96880.97
2022-11-23T16:01:51.358Z,96893.69
2022-11-23T16:04:45.689Z,96892.00
2022-11-23T16:07:17.454Z,96885.63
2022-11-23T16:09:52.214Z,96879.72
2022-11-23T16:12:21.959Z,96891.56
2022-11-23T16:14:49.679Z,96884.13
2022-11-23T16:17:21.498Z,96885.22
2022-11-23T16:19:50.753Z,96893.00
2022-11-23T16:22:25.950Z,96900.03
2022-11-23T16:25:03.664Z,96905.38
2022-11-23T16:27:31.022Z,96908.69
2022-11-23T16:30:02.841Z,96913.97
2022-11-23T16:32:32.278Z,96919.06
2022-11-23T16:35:14.239Z,96925.66
2022-11-23T16:37:41.599Z,96928.63
2022-11-23T16:40:09.578Z,96930.47
2022-11-23T16:42:36.968Z,96939.56
2022-11-23T16:45:04.560Z,96941.28
2022-11-23T16:47:31.960Z,96939.41
2022-11-23T16:49:59.282Z,96942.66
2022-11-23T16:52:26.716Z,96950.16
2022-11-23T16:54:54.130Z,96944.09
2022-11-23T16:57:31.630Z,96963.59
2022-11-23T17:00:01.668Z,96964.19
2022-11-23T17:02:29.041Z,96976.22
2022-11-23T17:04:56.494Z,96988.25
2022-11-23T17:07:23.945Z,96990.22
2022-11-23T17:09:51.353Z,97002.16
2022-11-23T17:12:19.949Z,97007.25
2022-11-23T17:14:51.107Z,97016.25
2022-11-23T17:17:22.464Z,97021.91
2022-11-23T17:19:50.899Z,97025.53
2022-11-23T17:22:19.505Z,97031.25
2022-11-23T17:24:47.644Z,97037.34
2022-11-23T17:27:17.091Z,97037.47
2022-11-23T17:29:45.014Z,97037.47
2022-11-23T17:32:14.213Z,97047.94
2022-11-23T17:34:41.891Z,97047.19
2022-11-23T17:37:23.940Z,97056.47
2022-11-23T17:39:51.674Z,97066.75
2022-11-23T17:42:19.131Z,97067.19
2022-11-23T17:44:46.605Z,97072.63
2022-11-23T17:47:25.897Z,97066.81
2022-11-23T17:49:53.271Z,97067.66
2022-11-23T17:52:20.985Z,97074.34
2022-11-23T17:54:48.409Z,97090.50
2022-11-23T17:57:22.326Z,97091.00
2022-11-23T17:59:49.958Z,97096.00
2022-11-23T18:02:19.211Z,97095.28
2022-11-23T18:04:47.716Z,97102.31
2022-11-23T18:07:16.006Z,97098.06
2022-11-23T18:09:43.492Z,97093.31
2022-11-23T18:12:11.308Z,97088.56
2022-11-23T18:14:38.736Z,97092.22
2022-11-23T18:17:06.043Z,97095.94
2022-11-23T18:19:33.831Z,97104.53
2022-11-23T18:22:01.463Z,97096.13
2022-11-23T18:24:28.792Z,97091.63
2022-11-23T18:26:56.290Z,97093.41
2022-11-23T18:29:23.697Z,97095.59
2022-11-23T18:31:51.002Z,97089.69
2022-11-23T18:34:18.287Z,97090.75
2022-11-23T18:36:45.566Z,97083.13
2022-11-23T18:39:13.809Z,97084.47
2022-11-23T18:41:41.211Z,97092.44
2022-11-23T18:44:08.509Z,97087.34
2022-11-23T18:46:35.873Z,97082.03
2022-11-23T18:49:03.253Z,97082.91
2022-11-23T18:51:31.075Z,97092.31
2022-11-23T18:53:58.833Z,97103.78
2022-11-23T18:56:26.210Z,97104.72
2022-11-23T18:58:53.579Z,97106.50
2022-11-23T19:01:22.684Z,97112.09
2022-11-23T19:03:52.077Z,97110.78
2022-11-23T19:06:21.964Z,97119.13
2022-11-23T19:08:51.531Z,97118.38
2022-11-23T19:11:21.156Z,97121.84
2022-11-23T19:13:50.866Z,97133.75
2022-11-23T19:16:24.039Z,97130.41
2022-11-23T19:18:55.723Z,97128.56
2022-11-23T19:21:24.507Z,97132.94
2022-11-23T19:23:53.185Z,97134.84
2022-11-23T19:26:21.144Z,97131.28
2022-11-23T19:28:48.950Z,97130.47
2022-11-23T19:31:22.010Z,97129.13
2022-11-23T19:33:50.531Z,97139.72
2022-11-23T19:36:20.223Z,97138.66
2022-11-23T19:38:50.544Z,97153.31
2022-11-23T19:41:18.790Z,97154.88
2022-11-23T19:43:46.308Z,97161.88
2022-11-23T19:46:14.563Z,97165.56
2022-11-23T19:48:42.172Z,97163.66
2022-11-23T19:51:13.996Z,97167.13
2022-11-23T19:53:42.507Z,97171.75
2022-11-23T19:56:26.194Z,97190.25
2022-11-23T19:58:56.030Z,97185.72
2022-11-23T20:01:25.174Z,97188.81
2022-11-23T20:03:54.952Z,97190.09
2022-11-23T20:06:26.417Z,97200.72
2022-11-23T20:09:02.305Z,97195.72
2022-11-23T20:11:32.195Z,97197.97
2022-11-23T20:13:59.205Z,97207.59
2022-11-23T20:16:30.000Z,97212.03
2022-11-23T20:19:06.489Z,97211.19
2022-11-23T20:21:34.593Z,97217.28
2022-11-23T20:24:14.628Z,97227.53
2022-11-23T20:26:42.409Z,97238.63
2022-11-23T20:29:09.644Z,97238.38
2022-11-23T20:31:37.631Z,97250.41
2022-11-23T20:34:07.761Z,97263.91
2022-11-23T20:36:37.852Z,97270.22
2022-11-23T20:39:07.846Z,97277.50
2022-11-23T20:41:36.771Z,97285.38
2022-11-23T20:44:14.866Z,97285.94
2022-11-23T20:49:30.348Z,97297.91
2022-11-23T20:51:58.502Z,97311.75
2022-11-23T20:54:25.748Z,97320.09
2022-11-23T20:56:52.735Z,97328.91
2022-11-23T20:59:20.258Z,97332.00
2022-11-23T21:01:47.262Z,97334.53
2022-11-23T21:04:14.305Z,97344.41
2022-11-23T21:06:41.415Z,97345.38
2022-11-23T21:09:10.243Z,97350.63
2022-11-23T21:11:55.967Z,97359.59
2022-11-23T21:14:27.378Z,97363.88
2022-11-23T21:17:00.833Z,97362.78
2022-11-23T21:19:30.193Z,97373.50
2022-11-23T21:21:59.152Z,97376.59
2022-11-23T21:24:26.230Z,97382.31
2022-11-23T21:26:53.192Z,97387.44
2022-11-23T21:29:20.474Z,97397.59
2022-11-23T21:31:48.994Z,97390.53
2022-11-23T21:34:22.872Z,97399.41
2022-11-23T21:36:51.071Z,97400.56
2022-11-23T21:39:18.815Z,97403.56
2022-11-23T21:41:47.487Z,97401.88
2022-11-23T21:44:14.505Z,97399.50
2022-11-23T21:46:42.477Z,97411.47
2022-11-23T21:49:10.441Z,97413.00
2022-11-23T21:51:38.601Z,97426.34
2022-11-23T21:54:09.771Z,97425.41
2022-11-23T21:56:36.724Z,97426.34
2022-11-23T21:59:03.819Z,97441.44
2022-11-23T22:01:33.271Z,97445.72
2022-11-23T22:04:13.205Z,97460.53
2022-11-23T22:06:42.067Z,97468.53
2022-11-23T22:09:10.597Z,97477.84
2022-11-23T22:11:41.143Z,97481.44
2022-11-23T22:14:14.639Z,97492.31
2022-11-23T22:16:47.316Z,97488.59
2022-11-23T22:19:16.471Z,97496.59
2022-11-23T22:21:45.647Z,97499.94
2022-11-23T22:24:16.186Z,97497.31
2022-11-23T22:26:44.141Z,97507.47
2022-11-23T22:29:11.752Z,97500.41
2022-11-23T22:31:39.540Z,97508.28
2022-11-23T22:34:09.263Z,97507.69
2022-11-23T22:36:36.392Z,97511.03
2022-11-23T22:39:06.074Z,97519.25
2022-11-23T22:41:36.660Z,97525.84
2022-11-23T22:44:06.812Z,97526.91
2022-11-23T22:46:34.167Z,97531.56
2022-11-23T22:49:01.876Z,97534.19
2022-11-23T22:51:29.883Z,97536.19
2022-11-23T22:53:59.286Z,97537.78
2022-11-23T22:56:27.504Z,97544.09
2022-11-23T22:58:54.803Z,97542.78
2022-11-23T23:01:24.617Z,97545.50
2022-11-23T23:03:56.700Z,97542.88
2022-11-23T23:06:29.644Z,97552.78
2022-11-23T23:08:59.427Z,97548.97
2022-11-23T23:11:29.384Z,97553.97
2022-11-23T23:13:56.892Z,97554.06
2022-11-23T23:16:24.634Z,97555.28
2022-11-23T23:18:52.122Z,97566.84
2022-11-23T23:21:21.655Z,97569.47
2022-11-23T23:23:51.650Z,97573.53
2022-11-23T23:26:22.288Z,97572.84
2022-11-23T23:28:53.536Z,97579.19
2022-11-23T23:31:20.545Z,97579.19
2022-11-23T23:33:47.693Z,97589.69
2022-11-23T23:36:17.724Z,97590.03
2022-11-23T23:38:45.474Z,97595.09
2022-11-23T23:41:13.930Z,97602.25
2022-11-23T23:43:41.909Z,97600.56
2022-11-23T23:46:12.172Z,97609.16
2022-11-23T23:48:40.694Z,97604.88
2022-11-23T23:51:18.965Z,97602.47
2022-11-23T23:53:46.678Z,97598.31
2022-11-23T23:56:16.045Z,97604.44
2022-11-23T23:58:43.269Z,97605.75
